sensor_id;sensor_type;location;lat;lon;timestamp;pressure;altitude;pressure_sealevel;temperature;humidity
56713;BME280;42589;45.536;9.032;2023-02-23T00:02:23;99602.03;;;19.07;43.72
56713;BME280;42589;45.536;9.032;2023-02-23T00:05:24;99597.22;;;19.22;43.76
56713;BME280;42589;45.536;9.032;2023-02-23T00:08:25;99598.34;;;19.01;44.60
56713;BME280;42589;45.536;9.032;2023-02-23T00:11:27;99592.91;;;19.08;44.09
56713;BME280;42589;45.536;9.032;2023-02-23T00:14:28;99594.53;;;19.15;44.26
56713;BME280;42589;45.536;9.032;2023-02-23T00:17:30;99598.69;;;19.18;43.95
56713;BME280;42589;45.536;9.032;2023-02-23T00:20:32;99589.59;;;19.06;43.85
56713;BME280;42589;45.536;9.032;2023-02-23T00:23:36;99592.53;;;19.04;44.21
56713;BME280;42589;45.536;9.032;2023-02-23T00:26:38;99599.63;;;18.78;44.45
56713;BME280;42589;45.536;9.032;2023-02-23T00:29:39;99596.53;;;18.75;44.15
56713;BME280;42589;45.536;9.032;2023-02-23T00:32:40;99592.13;;;19.00;44.04
56713;BME280;42589;45.536;9.032;2023-02-23T00:35:41;99591.28;;;19.07;43.86
56713;BME280;42589;45.536;9.032;2023-02-23T00:38:42;99586.53;;;18.95;44.25
56713;BME280;42589;45.536;9.032;2023-02-23T00:41:46;99578.88;;;18.92;44.09
56713;BME280;42589;45.536;9.032;2023-02-23T00:44:47;99585.91;;;19.00;44.23
56713;BME280;42589;45.536;9.032;2023-02-23T00:47:49;99580.16;;;18.70;44.47
56713;BME280;42589;45.536;9.032;2023-02-23T00:50:58;99579.69;;;18.93;45.02
56713;BME280;42589;45.536;9.032;2023-02-23T00:53:59;99585.72;;;18.88;44.38
56713;BME280;42589;45.536;9.032;2023-02-23T00:56:59;99579.09;;;18.71;44.46
56713;BME280;42589;45.536;9.032;2023-02-23T01:00:01;99578.69;;;18.94;44.34
56713;BME280;42589;45.536;9.032;2023-02-23T01:03:12;99588.97;;;19.10;44.12
56713;BME280;42589;45.536;9.032;2023-02-23T01:06:16;99564.22;;;18.75;44.66
56713;BME280;42589;45.536;9.032;2023-02-23T01:09:16;99572.47;;;18.87;44.38
56713;BME280;42589;45.536;9.032;2023-02-23T01:12:27;99586.38;;;18.77;44.83
56713;BME280;42589;45.536;9.032;2023-02-23T01:15:28;99581.16;;;18.89;44.76
56713;BME280;42589;45.536;9.032;2023-02-23T01:18:29;99584.25;;;18.92;44.28
56713;BME280;42589;45.536;9.032;2023-02-23T01:21:35;99573.50;;;18.86;44.76
56713;BME280;42589;45.536;9.032;2023-02-23T01:24:36;99573.31;;;18.87;44.37
56713;BME280;42589;45.536;9.032;2023-02-23T01:27:39;99581.19;;;18.82;44.73
56713;BME280;42589;45.536;9.032;2023-02-23T01:30:40;99582.63;;;18.91;45.18
56713;BME280;42589;45.536;9.032;2023-02-23T01:33:40;99582.22;;;18.61;45.37
56713;BME280;42589;45.536;9.032;2023-02-23T01:36:42;99580.53;;;18.93;44.64
56713;BME280;42589;45.536;9.032;2023-02-23T01:39:46;99578.94;;;18.72;45.09
56713;BME280;42589;45.536;9.032;2023-02-23T01:42:47;99577.66;;;18.82;45.14
56713;BME280;42589;45.536;9.032;2023-02-23T01:45:48;99574.69;;;19.10;43.32
56713;BME280;42589;45.536;9.032;2023-02-23T01:48:50;99569.38;;;18.70;44.33
56713;BME280;42589;45.536;9.032;2023-02-23T01:55:01;99566.66;;;18.90;44.25
56713;BME280;42589;45.536;9.032;2023-02-23T01:58:15;99551.50;;;19.02;44.88
56713;BME280;42589;45.536;9.032;2023-02-23T02:01:19;99556.69;;;19.04;44.26
56713;BME280;42589;45.536;9.032;2023-02-23T02:04:21;99564.38;;;19.00;44.22
56713;BME280;42589;45.536;9.032;2023-02-23T02:07:25;99544.72;;;18.86;44.50
56713;BME280;42589;45.536;9.032;2023-02-23T02:10:27;99548.03;;;18.88;44.71
56713;BME280;42589;45.536;9.032;2023-02-23T02:13:45;99548.91;;;18.75;45.23
56713;BME280;42589;45.536;9.032;2023-02-23T02:26:41;99540.41;;;18.65;45.59
56713;BME280;42589;45.536;9.032;2023-02-23T02:43:43;99529.22;;;18.55;46.62
56713;BME280;42589;45.536;9.032;2023-02-23T02:46:52;99538.78;;;18.51;45.89
56713;BME280;42589;45.536;9.032;2023-02-23T02:50:32;99533.56;;;18.69;46.10
56713;BME280;42589;45.536;9.032;2023-02-23T02:56:43;99520.53;;;18.60;45.26
56713;BME280;42589;45.536;9.032;2023-02-23T02:59:46;99526.53;;;18.55;45.93
56713;BME280;42589;45.536;9.032;2023-02-23T03:03:05;99526.09;;;18.65;45.19
56713;BME280;42589;45.536;9.032;2023-02-23T03:06:48;99529.13;;;19.01;45.74
56713;BME280;42589;45.536;9.032;2023-02-23T03:17:51;99523.41;;;18.71;45.69
56713;BME280;42589;45.536;9.032;2023-02-23T03:21:17;99521.16;;;18.62;44.99
56713;BME280;42589;45.536;9.032;2023-02-23T03:24:43;99514.22;;;18.21;46.58
56713;BME280;42589;45.536;9.032;2023-02-23T03:28:15;99511.25;;;18.36;45.79
56713;BME280;42589;45.536;9.032;2023-02-23T03:31:40;99510.66;;;18.33;45.56
56713;BME280;42589;45.536;9.032;2023-02-23T03:35:16;99522.84;;;18.49;46.29
56713;BME280;42589;45.536;9.032;2023-02-23T03:38:59;99512.66;;;18.71;44.83
56713;BME280;42589;45.536;9.032;2023-02-23T03:42:23;99505.88;;;18.42;46.14
56713;BME280;42589;45.536;9.032;2023-02-23T03:45:46;99519.69;;;18.79;44.76
56713;BME280;42589;45.536;9.032;2023-02-23T03:49:08;99520.09;;;18.76;44.73
56713;BME280;42589;45.536;9.032;2023-02-23T03:52:39;99529.44;;;18.60;45.45
56713;BME280;42589;45.536;9.032;2023-02-23T03:56:00;99527.53;;;18.81;44.63
56713;BME280;42589;45.536;9.032;2023-02-23T03:59:25;99528.59;;;18.73;44.74
56713;BME280;42589;45.536;9.032;2023-02-23T04:02:50;99523.00;;;18.61;44.80
56713;BME280;42589;45.536;9.032;2023-02-23T04:06:13;99509.63;;;18.35;44.88
56713;BME280;42589;45.536;9.032;2023-02-23T04:09:32;99515.63;;;18.43;44.89
56713;BME280;42589;45.536;9.032;2023-02-23T04:13:09;99526.31;;;18.70;45.19
56713;BME280;42589;45.536;9.032;2023-02-23T04:16:13;99508.53;;;18.49;44.95
56713;BME280;42589;45.536;9.032;2023-02-23T04:19:14;99520.72;;;18.58;45.08
56713;BME280;42589;45.536;9.032;2023-02-23T04:22:15;99524.06;;;18.60;44.55
56713;BME280;42589;45.536;9.032;2023-02-23T04:25:17;99533.22;;;18.26;45.26
56713;BME280;42589;45.536;9.032;2023-02-23T04:28:19;99529.50;;;18.07;45.69
56713;BME280;42589;45.536;9.032;2023-02-23T04:31:20;99530.97;;;18.16;45.76
56713;BME280;42589;45.536;9.032;2023-02-23T04:34:23;99528.69;;;18.13;45.53
56713;BME280;42589;45.536;9.032;2023-02-23T04:37:24;99534.88;;;18.20;45.50
56713;BME280;42589;45.536;9.032;2023-02-23T04:40:26;99522.06;;;18.22;45.18
56713;BME280;42589;45.536;9.032;2023-02-23T04:43:26;99537.56;;;18.14;45.19
56713;BME280;42589;45.536;9.032;2023-02-23T04:46:27;99541.91;;;18.01;46.39
56713;BME280;42589;45.536;9.032;2023-02-23T04:49:28;99540.25;;;18.07;46.57
56713;BME280;42589;45.536;9.032;2023-02-23T04:52:28;99550.00;;;18.21;45.40
56713;BME280;42589;45.536;9.032;2023-02-23T04:55:33;99541.94;;;18.08;45.37
56713;BME280;42589;45.536;9.032;2023-02-23T04:58:34;99539.44;;;18.20;45.43
56713;BME280;42589;45.536;9.032;2023-02-23T05:01:35;99543.56;;;18.22;45.20
56713;BME280;42589;45.536;9.032;2023-02-23T05:04:36;99544.59;;;18.01;45.69
56713;BME280;42589;45.536;9.032;2023-02-23T05:07:38;99541.72;;;18.16;45.50
56713;BME280;42589;45.536;9.032;2023-02-23T05:10:39;99531.19;;;18.15;45.30
56713;BME280;42589;45.536;9.032;2023-02-23T05:13:40;99534.69;;;18.15;45.69
56713;BME280;42589;45.536;9.032;2023-02-23T05:16:41;99534.69;;;18.15;45.82
56713;BME280;42589;45.536;9.032;2023-02-23T05:19:42;99539.84;;;18.17;45.24
56713;BME280;42589;45.536;9.032;2023-02-23T05:22:43;99534.69;;;18.22;45.95
56713;BME280;42589;45.536;9.032;2023-02-23T05:25:44;99528.66;;;18.26;45.52
56713;BME280;42589;45.536;9.032;2023-02-23T05:28:46;99522.06;;;18.16;45.36
56713;BME280;42589;45.536;9.032;2023-02-23T05:31:46;99527.84;;;18.13;45.54
56713;BME280;42589;45.536;9.032;2023-02-23T05:34:47;99530.91;;;18.36;45.42
56713;BME280;42589;45.536;9.032;2023-02-23T05:37:48;99531.16;;;18.28;45.25
56713;BME280;42589;45.536;9.032;2023-02-23T05:40:49;99525.78;;;18.21;45.18
56713;BME280;42589;45.536;9.032;2023-02-23T05:43:50;99529.69;;;18.39;44.98
56713;BME280;42589;45.536;9.032;2023-02-23T05:46:51;99529.91;;;18.30;45.38
56713;BME280;42589;45.536;9.032;2023-02-23T05:49:55;99536.75;;;18.20;45.36
56713;BME280;42589;45.536;9.032;2023-02-23T05:52:56;99532.19;;;18.00;45.62
56713;BME280;42589;45.536;9.032;2023-02-23T05:55:58;99524.94;;;17.74;46.26
56713;BME280;42589;45.536;9.032;2023-02-23T05:58:58;99535.53;;;17.89;45.88
56713;BME280;42589;45.536;9.032;2023-02-23T06:01:59;99538.81;;;17.78;46.03
56713;BME280;42589;45.536;9.032;2023-02-23T06:05:00;99533.25;;;17.79;46.46
56713;BME280;42589;45.536;9.032;2023-02-23T06:08:01;99541.50;;;17.78;46.44
56713;BME280;42589;45.536;9.032;2023-02-23T06:11:02;99549.78;;;17.90;46.23
56713;BME280;42589;45.536;9.032;2023-02-23T06:14:03;99553.94;;;17.99;45.41
56713;BME280;42589;45.536;9.032;2023-02-23T06:17:04;99547.72;;;18.18;45.35
56713;BME280;42589;45.536;9.032;2023-02-23T06:20:10;99543.16;;;18.19;45.31
56713;BME280;42589;45.536;9.032;2023-02-23T06:23:13;99556.59;;;18.32;45.30
56713;BME280;42589;45.536;9.032;2023-02-23T06:26:18;99555.56;;;18.33;45.56
56713;BME280;42589;45.536;9.032;2023-02-23T06:29:19;99559.28;;;18.32;44.97
56713;BME280;42589;45.536;9.032;2023-02-23T06:32:21;99554.72;;;18.32;45.25
56713;BME280;42589;45.536;9.032;2023-02-23T06:35:21;99560.97;;;18.40;45.07
56713;BME280;42589;45.536;9.032;2023-02-23T06:38:23;99557.59;;;18.58;44.78
56713;BME280;42589;45.536;9.032;2023-02-23T06:41:25;99556.16;;;18.68;44.49
56713;BME280;42589;45.536;9.032;2023-02-23T06:44:26;99560.28;;;18.77;44.81
56713;BME280;42589;45.536;9.032;2023-02-23T06:47:26;99563.59;;;18.73;44.78
56713;BME280;42589;45.536;9.032;2023-02-23T06:50:27;99568.16;;;18.72;44.99
56713;BME280;42589;45.536;9.032;2023-02-23T06:53:28;99566.28;;;18.73;44.75
56713;BME280;42589;45.536;9.032;2023-02-23T06:56:30;99567.94;;;18.87;44.04
56713;BME280;42589;45.536;9.032;2023-02-23T06:59:31;99580.72;;;18.98;44.24
56713;BME280;42589;45.536;9.032;2023-02-23T07:02:36;99580.91;;;19.04;43.93
56713;BME280;42589;45.536;9.032;2023-02-23T07:05:36;99585.88;;;19.07;43.94
56713;BME280;42589;45.536;9.032;2023-02-23T07:08:37;99572.59;;;19.12;43.67
56713;BME280;42589;45.536;9.032;2023-02-23T07:11:39;99590.44;;;19.13;44.18
56713;BME280;42589;45.536;9.032;2023-02-23T07:14:40;99596.81;;;19.18;43.70
56713;BME280;42589;45.536;9.032;2023-02-23T07:17:41;99581.25;;;19.20;44.38
56713;BME280;42589;45.536;9.032;2023-02-23T07:20:42;99592.50;;;19.11;44.13
56713;BME280;42589;45.536;9.032;2023-02-23T07:23:42;99595.13;;;19.24;43.74
56713;BME280;42589;45.536;9.032;2023-02-23T07:26:46;99588.03;;;19.36;44.00
56713;BME280;42589;45.536;9.032;2023-02-23T07:29:48;99599.75;;;19.10;44.31
56713;BME280;42589;45.536;9.032;2023-02-23T07:32:50;99585.66;;;19.08;44.67
56713;BME280;42589;45.536;9.032;2023-02-23T07:35:51;99589.56;;;19.12;44.18
56713;BME280;42589;45.536;9.032;2023-02-23T07:38:52;99610.69;;;19.22;44.61
56713;BME280;42589;45.536;9.032;2023-02-23T07:41:53;99610.22;;;19.38;43.53
56713;BME280;42589;45.536;9.032;2023-02-23T07:44:54;99614.34;;;19.34;44.49
56713;BME280;42589;45.536;9.032;2023-02-23T07:47:55;99612.69;;;19.40;43.83
56713;BME280;42589;45.536;9.032;2023-02-23T07:50:56;99611.84;;;19.39;43.91
56713;BME280;42589;45.536;9.032;2023-02-23T07:54:01;99613.47;;;19.54;44.22
56713;BME280;42589;45.536;9.032;2023-02-23T07:57:04;99615.28;;;19.08;45.06
56713;BME280;42589;45.536;9.032;2023-02-23T08:00:06;99615.88;;;19.23;44.25
56713;BME280;42589;45.536;9.032;2023-02-23T08:03:07;99614.59;;;19.33;44.35
56713;BME280;42589;45.536;9.032;2023-02-23T08:06:08;99616.75;;;19.56;43.94
56713;BME280;42589;45.536;9.032;2023-02-23T08:09:10;99623.91;;;19.30;45.24
56713;BME280;42589;45.536;9.032;2023-02-23T08:12:12;99616.03;;;19.35;44.72
56713;BME280;42589;45.536;9.032;2023-02-23T08:15:14;99623.59;;;19.58;44.04
56713;BME280;42589;45.536;9.032;2023-02-23T08:18:15;99619.53;;;19.42;44.88
56713;BME280;42589;45.536;9.032;2023-02-23T08:21:16;99623.59;;;19.58;44.89
56713;BME280;42589;45.536;9.032;2023-02-23T08:24:17;99622.88;;;19.38;45.25
56713;BME280;42589;45.536;9.032;2023-02-23T08:27:18;99621.28;;;19.62;44.54
56713;BME280;42589;45.536;9.032;2023-02-23T08:30:21;99619.66;;;19.99;43.54
56713;BME280;42589;45.536;9.032;2023-02-23T08:33:23;99623.78;;;20.02;43.73
56713;BME280;42589;45.536;9.032;2023-02-23T08:36:23;99623.50;;;19.78;44.60
56713;BME280;42589;45.536;9.032;2023-02-23T08:39:24;99621.94;;;20.27;43.45
56713;BME280;42589;45.536;9.032;2023-02-23T08:42:26;99615.97;;;20.18;44.18
56713;BME280;42589;45.536;9.032;2023-02-23T08:45:26;99616.69;;;20.32;43.43
56713;BME280;42589;45.536;9.032;2023-02-23T08:48:30;99636.38;;;20.39;43.30
56713;BME280;42589;45.536;9.032;2023-02-23T08:51:38;99625.66;;;20.26;43.62
56713;BME280;42589;45.536;9.032;2023-02-23T08:54:40;99636.03;;;19.98;43.80
56713;BME280;42589;45.536;9.032;2023-02-23T08:57:41;99633.00;;;19.87;43.98
56713;BME280;42589;45.536;9.032;2023-02-23T09:00:43;99633.72;;;20.08;43.80
56713;BME280;42589;45.536;9.032;2023-02-23T09:03:44;99633.38;;;20.48;43.04
56713;BME280;42589;45.536;9.032;2023-02-23T09:06:52;99629.63;;;20.74;42.51
56713;BME280;42589;45.536;9.032;2023-02-23T09:09:56;99623.59;;;20.28;43.37
56713;BME280;42589;45.536;9.032;2023-02-23T09:12:57;99641.53;;;20.16;42.96
56713;BME280;42589;45.536;9.032;2023-02-23T09:15:58;99637.84;;;19.72;43.82
56713;BME280;42589;45.536;9.032;2023-02-23T09:18:59;99632.66;;;20.09;43.61
56713;BME280;42589;45.536;9.032;2023-02-23T09:22:00;99621.38;;;20.18;43.59
56713;BME280;42589;45.536;9.032;2023-02-23T09:25:05;99641.19;;;20.06;42.42
56713;BME280;42589;45.536;9.032;2023-02-23T09:28:05;99643.41;;;19.84;42.77
56713;BME280;42589;45.536;9.032;2023-02-23T09:31:09;99633.84;;;20.70;41.09
56713;BME280;42589;45.536;9.032;2023-02-23T09:34:10;99632.47;;;21.04;40.75
56713;BME280;42589;45.536;9.032;2023-02-23T09:37:13;99645.22;;;21.15;39.12
56713;BME280;42589;45.536;9.032;2023-02-23T09:40:21;99623.44;;;21.47;39.92
56713;BME280;42589;45.536;9.032;2023-02-23T09:43:30;99637.53;;;21.67;39.74
56713;BME280;42589;45.536;9.032;2023-02-23T09:46:41;99643.38;;;21.83;38.21
56713;BME280;42589;45.536;9.032;2023-02-23T09:49:47;99636.28;;;21.82;37.33
56713;BME280;42589;45.536;9.032;2023-02-23T09:52:57;99645.84;;;21.84;37.42
56713;BME280;42589;45.536;9.032;2023-02-23T09:55:59;99636.13;;;21.95;37.23
56713;BME280;42589;45.536;9.032;2023-02-23T09:59:11;99642.09;;;21.97;37.57
56713;BME280;42589;45.536;9.032;2023-02-23T10:02:57;99639.66;;;22.07;37.07
56713;BME280;42589;45.536;9.032;2023-02-23T10:06:05;99641.56;;;22.07;36.66
56713;BME280;42589;45.536;9.032;2023-02-23T10:12:44;99640.59;;;22.55;37.98
56713;BME280;42589;45.536;9.032;2023-02-23T10:19:27;99645.09;;;22.61;36.35
56713;BME280;42589;45.536;9.032;2023-02-23T10:22:33;99645.00;;;23.03;35.73
56713;BME280;42589;45.536;9.032;2023-02-23T10:25:39;99642.97;;;23.22;36.15
56713;BME280;42589;45.536;9.032;2023-02-23T10:28:41;99642.34;;;23.31;34.78
56713;BME280;42589;45.536;9.032;2023-02-23T10:31:46;99638.25;;;22.70;35.97
56713;BME280;42589;45.536;9.032;2023-02-23T10:34:52;99636.47;;;21.68;37.92
56713;BME280;42589;45.536;9.032;2023-02-23T10:37:55;99632.28;;;22.14;37.57
56713;BME280;42589;45.536;9.032;2023-02-23T10:40:56;99647.84;;;21.03;39.00
56713;BME280;42589;45.536;9.032;2023-02-23T10:43:57;99644.47;;;22.23;37.22
56713;BME280;42589;45.536;9.032;2023-02-23T10:47:02;99635.06;;;22.50;36.93
56713;BME280;42589;45.536;9.032;2023-02-23T10:50:08;99638.44;;;22.21;37.19
56713;BME280;42589;45.536;9.032;2023-02-23T10:56:12;99631.78;;;22.06;37.72
56713;BME280;42589;45.536;9.032;2023-02-23T10:59:19;99633.22;;;22.08;38.20
56713;BME280;42589;45.536;9.032;2023-02-23T11:02:23;99626.53;;;21.81;38.25
56713;BME280;42589;45.536;9.032;2023-02-23T11:05:29;99637.63;;;22.21;38.11
56713;BME280;42589;45.536;9.032;2023-02-23T11:08:36;99629.63;;;22.26;38.25
56713;BME280;42589;45.536;9.032;2023-02-23T11:11:37;99631.13;;;21.80;38.55
56713;BME280;42589;45.536;9.032;2023-02-23T11:14:38;99628.31;;;22.17;37.67
56713;BME280;42589;45.536;9.032;2023-02-23T11:17:39;99633.03;;;22.21;38.08
56713;BME280;42589;45.536;9.032;2023-02-23T11:20:41;99620.56;;;22.32;37.81
56713;BME280;42589;45.536;9.032;2023-02-23T11:23:42;99616.56;;;22.35;37.51
56713;BME280;42589;45.536;9.032;2023-02-23T11:26:45;99617.16;;;22.37;38.08
56713;BME280;42589;45.536;9.032;2023-02-23T11:29:48;99623.53;;;22.31;38.36
56713;BME280;42589;45.536;9.032;2023-02-23T11:32:56;99614.31;;;22.20;38.37
56713;BME280;42589;45.536;9.032;2023-02-23T11:35:59;99623.75;;;22.64;37.72
56713;BME280;42589;45.536;9.032;2023-02-23T11:39:26;99605.13;;;22.33;38.13
56713;BME280;42589;45.536;9.032;2023-02-23T11:42:30;99614.09;;;22.33;38.42
56713;BME280;42589;45.536;9.032;2023-02-23T11:45:47;99613.50;;;22.31;38.17
56713;BME280;42589;45.536;9.032;2023-02-23T11:51:49;99608.19;;;22.83;37.45
56713;BME280;42589;45.536;9.032;2023-02-23T11:54:58;99603.38;;;23.09;36.20
56713;BME280;42589;45.536;9.032;2023-02-23T11:58:33;99584.69;;;23.36;35.95
56713;BME280;42589;45.536;9.032;2023-02-23T12:02:02;99604.56;;;22.54;37.28
56713;BME280;42589;45.536;9.032;2023-02-23T12:05:08;99582.72;;;22.02;37.94
56713;BME280;42589;45.536;9.032;2023-02-23T12:08:15;99571.44;;;22.05;39.15
56713;BME280;42589;45.536;9.032;2023-02-23T12:11:24;99585.16;;;22.34;38.08
56713;BME280;42589;45.536;9.032;2023-02-23T12:17:45;99562.41;;;22.35;38.43
56713;BME280;42589;45.536;9.032;2023-02-23T12:20:54;99570.31;;;22.71;37.17
56713;BME280;42589;45.536;9.032;2023-02-23T12:30:54;99583.59;;;22.85;36.72
56713;BME280;42589;45.536;9.032;2023-02-23T12:34:37;99577.47;;;23.01;36.67
56713;BME280;42589;45.536;9.032;2023-02-23T12:37:45;99554.41;;;22.63;36.55
56713;BME280;42589;45.536;9.032;2023-02-23T12:40:47;99571.03;;;22.55;37.53
56713;BME280;42589;45.536;9.032;2023-02-23T12:50:35;99547.13;;;22.40;37.67
56713;BME280;42589;45.536;9.032;2023-02-23T12:53:42;99544.94;;;22.07;37.83
56713;BME280;42589;45.536;9.032;2023-02-23T12:57:02;99548.88;;;22.23;37.85
56713;BME280;42589;45.536;9.032;2023-02-23T13:06:56;99543.72;;;22.33;37.29
56713;BME280;42589;45.536;9.032;2023-02-23T13:13:27;99554.47;;;23.04;35.69
56713;BME280;42589;45.536;9.032;2023-02-23T13:16:49;99555.91;;;22.83;36.24
56713;BME280;42589;45.536;9.032;2023-02-23T13:19:54;99551.19;;;22.90;35.83
56713;BME280;42589;45.536;9.032;2023-02-23T13:26:20;99547.97;;;23.16;36.02
56713;BME280;42589;45.536;9.032;2023-02-23T13:29:39;99549.19;;;22.74;36.46
56713;BME280;42589;45.536;9.032;2023-02-23T13:32:42;99543.88;;;23.02;36.10
56713;BME280;42589;45.536;9.032;2023-02-23T13:35:43;99535.72;;;23.02;35.74
56713;BME280;42589;45.536;9.032;2023-02-23T13:42:38;99524.34;;;23.29;36.12
56713;BME280;42589;45.536;9.032;2023-02-23T13:51:54;99526.50;;;23.44;35.70
56713;BME280;42589;45.536;9.032;2023-02-23T13:54:58;99534.91;;;23.59;35.45
56713;BME280;42589;45.536;9.032;2023-02-23T13:58:12;99513.03;;;23.49;35.01
56713;BME280;42589;45.536;9.032;2023-02-23T14:01:20;99528.50;;;23.48;35.50
56713;BME280;42589;45.536;9.032;2023-02-23T14:04:26;99514.94;;;23.48;35.12
56713;BME280;42589;45.536;9.032;2023-02-23T14:07:30;99521.25;;;24.16;33.68
56713;BME280;42589;45.536;9.032;2023-02-23T14:10:39;99527.81;;;24.37;34.00
56713;BME280;42589;45.536;9.032;2023-02-23T14:13:57;99518.84;;;24.20;34.94
56713;BME280;42589;45.536;9.032;2023-02-23T14:20:22;99518.97;;;24.08;34.37
56713;BME280;42589;45.536;9.032;2023-02-23T14:27:31;99520.94;;;23.50;34.49
56713;BME280;42589;45.536;9.032;2023-02-23T14:30:42;99508.16;;;24.13;33.40
56713;BME280;42589;45.536;9.032;2023-02-23T14:36:48;99526.25;;;23.91;33.47
56713;BME280;42589;45.536;9.032;2023-02-23T14:39:54;99525.34;;;24.19;33.94
56713;BME280;42589;45.536;9.032;2023-02-23T14:42:57;99511.69;;;24.30;33.67
56713;BME280;42589;45.536;9.032;2023-02-23T14:46:01;99520.03;;;24.24;33.77
56713;BME280;42589;45.536;9.032;2023-02-23T14:49:08;99513.44;;;23.86;34.53
56713;BME280;42589;45.536;9.032;2023-02-23T14:52:31;99510.81;;;24.08;33.58
56713;BME280;42589;45.536;9.032;2023-02-23T14:55:33;99515.72;;;24.28;32.59
56713;BME280;42589;45.536;9.032;2023-02-23T14:58:37;99513.66;;;23.68;33.25
56713;BME280;42589;45.536;9.032;2023-02-23T15:01:38;99497.44;;;23.56;33.28
56713;BME280;42589;45.536;9.032;2023-02-23T15:04:39;99514.09;;;23.93;32.73
56713;BME280;42589;45.536;9.032;2023-02-23T15:07:41;99507.09;;;23.97;32.71
56713;BME280;42589;45.536;9.032;2023-02-23T15:10:44;99518.47;;;24.11;32.95
56713;BME280;42589;45.536;9.032;2023-02-23T15:13:49;99508.09;;;24.08;32.84
56713;BME280;42589;45.536;9.032;2023-02-23T15:16:51;99508.34;;;23.44;33.22
56713;BME280;42589;45.536;9.032;2023-02-23T15:19:58;99505.50;;;23.68;33.68
56713;BME280;42589;45.536;9.032;2023-02-23T15:23:02;99496.66;;;23.44;34.23
56713;BME280;42589;45.536;9.032;2023-02-23T15:29:32;99506.13;;;23.86;33.12
56713;BME280;42589;45.536;9.032;2023-02-23T15:32:36;99488.78;;;23.13;33.99
56713;BME280;42589;45.536;9.032;2023-02-23T15:35:42;99512.47;;;23.18;34.21
56713;BME280;42589;45.536;9.032;2023-02-23T15:38:51;99519.09;;;23.39;34.27
56713;BME280;42589;45.536;9.032;2023-02-23T15:41:52;99507.78;;;23.13;34.29
56713;BME280;42589;45.536;9.032;2023-02-23T15:44:59;99511.75;;;23.23;34.17
56713;BME280;42589;45.536;9.032;2023-02-23T15:48:04;99507.81;;;23.30;34.29
56713;BME280;42589;45.536;9.032;2023-02-23T15:51:06;99495.63;;;23.45;34.09
56713;BME280;42589;45.536;9.032;2023-02-23T15:54:21;99508.28;;;23.56;34.40
56713;BME280;42589;45.536;9.032;2023-02-23T15:57:29;99506.66;;;23.26;34.56
56713;BME280;42589;45.536;9.032;2023-02-23T16:00:37;99503.03;;;23.21;34.17
56713;BME280;42589;45.536;9.032;2023-02-23T16:03:43;99509.38;;;23.26;34.51
56713;BME280;42589;45.536;9.032;2023-02-23T16:06:55;99498.03;;;23.29;34.40
56713;BME280;42589;45.536;9.032;2023-02-23T16:10:22;99510.09;;;23.50;33.65
56713;BME280;42589;45.536;9.032;2023-02-23T16:13:24;99513.50;;;23.29;34.21
56713;BME280;42589;45.536;9.032;2023-02-23T16:16:26;99503.44;;;23.12;34.35
56713;BME280;42589;45.536;9.032;2023-02-23T16:19:27;99497.06;;;23.07;34.45
56713;BME280;42589;45.536;9.032;2023-02-23T16:22:30;99502.97;;;23.04;34.36
56713;BME280;42589;45.536;9.032;2023-02-23T16:25:32;99498.50;;;23.09;34.10
56713;BME280;42589;45.536;9.032;2023-02-23T16:28:35;99502.34;;;23.13;34.27
56713;BME280;42589;45.536;9.032;2023-02-23T16:31:53;99500.75;;;23.29;34.26
56713;BME280;42589;45.536;9.032;2023-02-23T16:34:59;99504.19;;;22.84;35.10
56713;BME280;42589;45.536;9.032;2023-02-23T16:38:02;99504.81;;;22.63;35.46
56713;BME280;42589;45.536;9.032;2023-02-23T16:41:16;99508.56;;;23.26;34.61
56713;BME280;42589;45.536;9.032;2023-02-23T16:44:18;99477.47;;;22.76;34.87
56713;BME280;42589;45.536;9.032;2023-02-23T16:50:23;99499.38;;;22.75;35.40
56713;BME280;42589;45.536;9.032;2023-02-23T16:53:24;99481.66;;;22.55;35.83
56713;BME280;42589;45.536;9.032;2023-02-23T16:56:25;99490.59;;;22.32;36.44
56713;BME280;42589;45.536;9.032;2023-02-23T16:59:28;99491.53;;;22.38;36.47
56713;BME280;42589;45.536;9.032;2023-02-23T17:02:29;99500.59;;;22.08;36.71
56713;BME280;42589;45.536;9.032;2023-02-23T17:05:32;99497.91;;;22.20;36.59
56713;BME280;42589;45.536;9.032;2023-02-23T17:08:33;99486.09;;;22.02;36.71
56713;BME280;42589;45.536;9.032;2023-02-23T17:11:40;99501.81;;;22.24;36.39
56713;BME280;42589;45.536;9.032;2023-02-23T17:14:41;99505.28;;;21.89;37.57
56713;BME280;42589;45.536;9.032;2023-02-23T17:17:42;99499.91;;;21.47;38.32
56713;BME280;42589;45.536;9.032;2023-02-23T17:20:44;99494.09;;;21.86;37.48
56713;BME280;42589;45.536;9.032;2023-02-23T17:23:46;99504.66;;;21.75;37.38
56713;BME280;42589;45.536;9.032;2023-02-23T17:26:52;99509.91;;;21.59;37.74
56713;BME280;42589;45.536;9.032;2023-02-23T17:29:53;99511.69;;;21.65;37.60
56713;BME280;42589;45.536;9.032;2023-02-23T17:32:56;99519.56;;;21.54;38.05
56713;BME280;42589;45.536;9.032;2023-02-23T17:35:58;99506.44;;;21.70;37.32
56713;BME280;42589;45.536;9.032;2023-02-23T17:39:00;99521.94;;;21.74;37.34
56713;BME280;42589;45.536;9.032;2023-02-23T17:42:01;99509.25;;;21.63;37.73
56713;BME280;42589;45.536;9.032;2023-02-23T17:45:03;99529.44;;;21.61;37.62
56713;BME280;42589;45.536;9.032;2023-02-23T17:48:04;99532.50;;;21.64;37.64
56713;BME280;42589;45.536;9.032;2023-02-23T17:51:09;99526.06;;;21.77;37.61
56713;BME280;42589;45.536;9.032;2023-02-23T17:54:11;99544.75;;;21.37;38.03
56713;BME280;42589;45.536;9.032;2023-02-23T17:57:12;99555.88;;;21.59;38.04
56713;BME280;42589;45.536;9.032;2023-02-23T18:00:15;99534.81;;;21.30;38.06
56713;BME280;42589;45.536;9.032;2023-02-23T18:03:16;99553.94;;;21.17;38.31
56713;BME280;42589;45.536;9.032;2023-02-23T18:06:17;99552.06;;;20.99;38.95
56713;BME280;42589;45.536;9.032;2023-02-23T18:09:19;99547.19;;;21.08;38.44
56713;BME280;42589;45.536;9.032;2023-02-23T18:12:21;99554.63;;;21.13;38.28